Aérodrome :
LOGIN :

S'inscrire | Disclaimer

   EN    FR    IT 

 










Légende :    VFR   VFR Marginal   IFR   IFR Intensif   IFR Très Intensif
Visi : 
Plafond : 
>= 8 km
>= 3000ft
5 à 8 km
1000 à 3000 ft
1500m à 5 km
500 à 1000 ft
800 à 1500m
200 à 500 ft
< 800m
< 200 ft
Symboles :   Orages  Brouillard  Fortes neiges  Fortes précipitations  Vent > 20 kt
SIGMETs :   Divers  Orages  Givrage  Turbulence  Onde Orograph.  Cendres Volcan.






- Altitude de l'aérodrome : 14 ft
- Code IATA : BRE


EDDW - Bremen Neuenland

DERNIER METAR :
  • 250650Z 30014KT 9999 SCT022 BKN035 13/07 Q1030 TEMPO 30015G25KT

METARs EXPIRÉS :
  • 250620Z 31014KT 9999 SCT022 SCT035 12/07 Q1029 TEMPO 30015G25KT
  • 250550Z 30014KT 9999 -RA SCT022 BKN035 12/07 Q1029 TEMPO 30015G25KT
  • 250520Z 30014KT 9999 SCT022 BKN035 12/07 Q1029 NOSIG
  • 250450Z 31013KT 280V340 9999 BKN021 12/07 Q1029 NOSIG
  • 250420Z 31014KT 9999 SCT020 BKN033 12/08 Q1028 NOSIG

TAF TAF EDDW
Valide du 25 à 06h jusqu'au 26 à 06h UTC


250500Z 2506/2606 31013KT 9999 SCT030
TEMPO 2506/2512 32015G25KT
BECMG 2514/2516 33008KT
BECMG 2519/2521 31003KT
BECMG 2600/2602 2500 BCFG
PROB40
TEMPO 2602/2604 0500 FG BKN002
BECMG 2604/2606 8000



MET'MAP, la Météo Aéronautique d'un coup d'oeil ! - Copyright ORBIFLY Décembre 2007 - Disclaimer

ORBIFLY MET'MAP TEAM :

Programmation & Développement : Alexandra Zaïnal
Sur une idée originale de : Baudouin d'Aumeries
Assistance à la programmation : Marc-Olivier Méhu
Soutien technique & logistique : Manuel Goepfert

Contact : metmap@orbifly.com




SOURCES & CREDITS :

   NOAA